Terminal Aerodrome Forecast
Issued by NWS

Home | Current Version | Previous Version | Text Only | Print | Product List | Glossary On
Versions: 1 2 3 4 5 6 7 8 9 10 11 12 13 14 15 16 17 18
585
FTUS45 KTFX 171130
TAFHLN
TAF
KHLN 171130Z 1712/1812 16006KT P6SM BKN200
     FM181100 16009KT P6SM BKN100=

USA.gov is the U.S. government's official web portal to all federal, state and local government web resources and services.